sensor_id;sensor_type;location;lat;lon;timestamp;pressure;altitude;pressure_sealevel;temperature;humidity
13604;BME280;24578;48.264;11.436;2023-02-17T00:02:55;97003.66;;;6.60;85.25
13604;BME280;24578;48.264;11.436;2023-02-17T00:05:56;96998.88;;;6.71;84.62
13604;BME280;24578;48.264;11.436;2023-02-17T00:08:57;97000.63;;;6.70;84.56
13604;BME280;24578;48.264;11.436;2023-02-17T00:11:59;96995.13;;;6.78;84.21
13604;BME280;24578;48.264;11.436;2023-02-17T00:14:59;96996.69;;;6.82;83.93
13604;BME280;24578;48.264;11.436;2023-02-17T00:18:00;96995.91;;;6.80;83.74
13604;BME280;24578;48.264;11.436;2023-02-17T00:21:16;97002.00;;;6.78;83.93
13604;BME280;24578;48.264;11.436;2023-02-17T00:24:17;96993.88;;;6.87;83.62
13604;BME280;24578;48.264;11.436;2023-02-17T00:27:18;96991.09;;;6.92;83.37
13604;BME280;24578;48.264;11.436;2023-02-17T00:30:19;96987.41;;;6.97;82.48
13604;BME280;24578;48.264;11.436;2023-02-17T00:33:19;96988.44;;;6.93;82.73
13604;BME280;24578;48.264;11.436;2023-02-17T00:36:20;96980.94;;;6.89;83.13
13604;BME280;24578;48.264;11.436;2023-02-17T00:39:21;96986.22;;;6.85;82.80
13604;BME280;24578;48.264;11.436;2023-02-17T00:42:21;96994.78;;;6.86;82.42
13604;BME280;24578;48.264;11.436;2023-02-17T00:45:22;96997.38;;;6.86;83.22
13604;BME280;24578;48.264;11.436;2023-02-17T00:48:22;96998.69;;;6.76;83.49
13604;BME280;24578;48.264;11.436;2023-02-17T00:51:24;96996.25;;;6.73;83.71
13604;BME280;24578;48.264;11.436;2023-02-17T00:54:25;96996.03;;;6.58;84.76
13604;BME280;24578;48.264;11.436;2023-02-17T00:57:25;96992.50;;;6.40;86.69
13604;BME280;24578;48.264;11.436;2023-02-17T01:00:26;96991.44;;;6.46;86.72
13604;BME280;24578;48.264;11.436;2023-02-17T01:03:27;96995.59;;;6.48;86.51
13604;BME280;24578;48.264;11.436;2023-02-17T01:06:32;96992.38;;;6.43;87.39
13604;BME280;24578;48.264;11.436;2023-02-17T01:09:32;96997.69;;;6.59;85.56
13604;BME280;24578;48.264;11.436;2023-02-17T01:12:33;96991.09;;;6.53;86.07
13604;BME280;24578;48.264;11.436;2023-02-17T01:15:48;96986.56;;;6.59;86.13
13604;BME280;24578;48.264;11.436;2023-02-17T01:18:50;96991.78;;;6.57;86.42
13604;BME280;24578;48.264;11.436;2023-02-17T01:21:51;96988.03;;;6.64;85.64
13604;BME280;24578;48.264;11.436;2023-02-17T01:24:51;96984.88;;;6.58;86.11
13604;BME280;24578;48.264;11.436;2023-02-17T01:27:52;96992.56;;;6.59;86.57
13604;BME280;24578;48.264;11.436;2023-02-17T01:30:52;96981.50;;;6.57;86.42
13604;BME280;24578;48.264;11.436;2023-02-17T01:33:55;96986.63;;;6.57;86.71
13604;BME280;24578;48.264;11.436;2023-02-17T01:36:56;96993.50;;;6.57;87.00
13604;BME280;24578;48.264;11.436;2023-02-17T01:39:57;96989.34;;;6.54;87.48
13604;BME280;24578;48.264;11.436;2023-02-17T01:42:57;96999.63;;;6.54;87.25
13604;BME280;24578;48.264;11.436;2023-02-17T01:46:00;96992.69;;;6.56;87.06
13604;BME280;24578;48.264;11.436;2023-02-17T01:49:06;96986.63;;;6.57;86.81
13604;BME280;24578;48.264;11.436;2023-02-17T01:52:17;96979.25;;;6.49;87.18
13604;BME280;24578;48.264;11.436;2023-02-17T01:55:22;96979.88;;;6.54;86.70
13604;BME280;24578;48.264;11.436;2023-02-17T01:58:26;96974.94;;;6.50;86.88
13604;BME280;24578;48.264;11.436;2023-02-17T02:01:29;96967.59;;;6.61;86.20
13604;BME280;24578;48.264;11.436;2023-02-17T02:04:34;96978.22;;;6.53;86.61
13604;BME280;24578;48.264;11.436;2023-02-17T02:07:40;96974.00;;;6.52;86.82
13604;BME280;24578;48.264;11.436;2023-02-17T02:10:41;96975.72;;;6.52;87.70
13604;BME280;24578;48.264;11.436;2023-02-17T02:13:42;96954.44;;;6.48;87.58
13604;BME280;24578;48.264;11.436;2023-02-17T02:20:02;96963.97;;;6.65;85.74
13604;BME280;24578;48.264;11.436;2023-02-17T02:23:47;96959.53;;;6.69;85.13
13604;BME280;24578;48.264;11.436;2023-02-17T02:34:15;96963.63;;;6.92;82.22
13604;BME280;24578;48.264;11.436;2023-02-17T02:37:42;96963.91;;;6.86;82.72
13604;BME280;24578;48.264;11.436;2023-02-17T02:40:55;96960.56;;;6.84;83.15
13604;BME280;24578;48.264;11.436;2023-02-17T02:43:56;96963.78;;;6.89;82.78
13604;BME280;24578;48.264;11.436;2023-02-17T02:47:03;96946.19;;;6.99;81.75
13604;BME280;24578;48.264;11.436;2023-02-17T02:50:05;96952.72;;;6.87;82.29
13604;BME280;24578;48.264;11.436;2023-02-17T02:53:26;96950.00;;;6.90;81.63
13604;BME280;24578;48.264;11.436;2023-02-17T03:00:19;96941.38;;;6.91;80.17
13604;BME280;24578;48.264;11.436;2023-02-17T03:04:54;96929.06;;;6.98;79.51
13604;BME280;24578;48.264;11.436;2023-02-17T03:08:11;96930.66;;;7.00;79.09
13604;BME280;24578;48.264;11.436;2023-02-17T03:11:15;96926.63;;;6.95;79.54
13604;BME280;24578;48.264;11.436;2023-02-17T03:14:36;96909.69;;;7.08;77.64
13604;BME280;24578;48.264;11.436;2023-02-17T03:17:37;96908.69;;;7.11;77.41
13604;BME280;24578;48.264;11.436;2023-02-17T03:20:44;96910.09;;;7.18;76.87
13604;BME280;24578;48.264;11.436;2023-02-17T03:23:46;96904.72;;;7.23;75.34
13604;BME280;24578;48.264;11.436;2023-02-17T03:26:47;96909.13;;;7.38;73.79
13604;BME280;24578;48.264;11.436;2023-02-17T03:29:48;96903.81;;;7.41;73.75
13604;BME280;24578;48.264;11.436;2023-02-17T03:32:48;96902.66;;;7.29;73.59
13604;BME280;24578;48.264;11.436;2023-02-17T03:35:49;96902.63;;;7.31;72.96
13604;BME280;24578;48.264;11.436;2023-02-17T03:38:49;96901.94;;;7.45;72.47
13604;BME280;24578;48.264;11.436;2023-02-17T03:41:50;96907.06;;;7.45;72.34
13604;BME280;24578;48.264;11.436;2023-02-17T03:44:51;96903.75;;;7.43;71.61
13604;BME280;24578;48.264;11.436;2023-02-17T03:47:52;96907.06;;;7.45;71.49
13604;BME280;24578;48.264;11.436;2023-02-17T03:50:53;96909.75;;;7.43;72.10
13604;BME280;24578;48.264;11.436;2023-02-17T03:53:53;96906.78;;;7.51;71.97
13604;BME280;24578;48.264;11.436;2023-02-17T03:56:54;96898.28;;;7.67;70.23
13604;BME280;24578;48.264;11.436;2023-02-17T03:59:55;96902.53;;;7.68;69.55
13604;BME280;24578;48.264;11.436;2023-02-17T04:02:55;96901.84;;;7.64;70.33
13604;BME280;24578;48.264;11.436;2023-02-17T04:05:59;96893.81;;;7.70;70.16
13604;BME280;24578;48.264;11.436;2023-02-17T04:09:00;96895.63;;;7.68;69.84
13604;BME280;24578;48.264;11.436;2023-02-17T04:12:01;96896.16;;;7.75;68.93
13604;BME280;24578;48.264;11.436;2023-02-17T04:15:01;96886.97;;;7.87;68.02
13604;BME280;24578;48.264;11.436;2023-02-17T04:18:02;96878.34;;;7.88;67.41
13604;BME280;24578;48.264;11.436;2023-02-17T04:21:03;96884.00;;;7.95;67.12
13604;BME280;24578;48.264;11.436;2023-02-17T04:24:04;96890.19;;;8.08;65.45
13604;BME280;24578;48.264;11.436;2023-02-17T04:27:05;96894.78;;;8.19;64.29
13604;BME280;24578;48.264;11.436;2023-02-17T04:30:06;96886.06;;;8.21;64.40
13604;BME280;24578;48.264;11.436;2023-02-17T04:33:07;96877.75;;;8.16;65.01
13604;BME280;24578;48.264;11.436;2023-02-17T04:36:07;96888.47;;;8.25;62.92
13604;BME280;24578;48.264;11.436;2023-02-17T04:39:08;96893.25;;;8.32;62.25
13604;BME280;24578;48.264;11.436;2023-02-17T04:42:08;96896.97;;;8.27;62.44
13604;BME280;24578;48.264;11.436;2023-02-17T04:45:10;96878.41;;;8.20;63.32
13604;BME280;24578;48.264;11.436;2023-02-17T04:48:10;96881.81;;;8.20;62.89
13604;BME280;24578;48.264;11.436;2023-02-17T04:51:11;96881.66;;;8.23;63.21
13604;BME280;24578;48.264;11.436;2023-02-17T04:54:11;96878.91;;;8.27;62.30
13604;BME280;24578;48.264;11.436;2023-02-17T04:57:12;96883.00;;;8.31;62.22
13604;BME280;24578;48.264;11.436;2023-02-17T05:00:13;96873.75;;;8.27;62.79
13604;BME280;24578;48.264;11.436;2023-02-17T05:03:13;96883.00;;;8.31;62.71
13604;BME280;24578;48.264;11.436;2023-02-17T05:06:14;96872.03;;;8.43;61.92
13604;BME280;24578;48.264;11.436;2023-02-17T05:09:14;96870.53;;;8.39;63.22
13604;BME280;24578;48.264;11.436;2023-02-17T05:12:15;96874.44;;;8.30;64.36
13604;BME280;24578;48.264;11.436;2023-02-17T05:15:15;96871.81;;;8.48;64.83
13604;BME280;24578;48.264;11.436;2023-02-17T05:18:16;96872.84;;;8.28;66.66
13604;BME280;24578;48.264;11.436;2023-02-17T05:21:16;96860.78;;;8.28;67.04
13604;BME280;24578;48.264;11.436;2023-02-17T05:24:17;96857.84;;;8.18;68.26
13604;BME280;24578;48.264;11.436;2023-02-17T05:27:18;96862.13;;;8.35;67.30
13604;BME280;24578;48.264;11.436;2023-02-17T05:30:19;96854.78;;;8.44;67.11
13604;BME280;24578;48.264;11.436;2023-02-17T05:33:19;96861.34;;;8.51;67.42
13604;BME280;24578;48.264;11.436;2023-02-17T05:36:20;96852.97;;;8.46;67.69
13604;BME280;24578;48.264;11.436;2023-02-17T05:39:20;96855.97;;;8.22;70.08
13604;BME280;24578;48.264;11.436;2023-02-17T05:42:21;96859.97;;;8.28;69.62
13604;BME280;24578;48.264;11.436;2023-02-17T05:45:21;96859.09;;;8.27;69.71
13604;BME280;24578;48.264;11.436;2023-02-17T05:48:22;96863.44;;;8.27;69.92
13604;BME280;24578;48.264;11.436;2023-02-17T05:51:22;96861.19;;;8.20;71.53
13604;BME280;24578;48.264;11.436;2023-02-17T05:54:23;96864.97;;;8.31;71.64
13604;BME280;24578;48.264;11.436;2023-02-17T05:57:24;96868.59;;;8.27;72.34
13604;BME280;24578;48.264;11.436;2023-02-17T06:00:24;96877.66;;;8.34;72.15
13604;BME280;24578;48.264;11.436;2023-02-17T06:03:25;96875.69;;;8.23;74.01
13604;BME280;24578;48.264;11.436;2023-02-17T06:06:25;96883.38;;;8.41;73.06
13604;BME280;24578;48.264;11.436;2023-02-17T06:09:26;96891.75;;;8.44;73.75
13604;BME280;24578;48.264;11.436;2023-02-17T06:12:27;96894.03;;;8.50;73.48
13604;BME280;24578;48.264;11.436;2023-02-17T06:15:27;96905.47;;;8.45;82.25
13604;BME280;24578;48.264;11.436;2023-02-17T06:18:29;96902.66;;;8.33;91.24
13604;BME280;24578;48.264;11.436;2023-02-17T06:21:30;96900.88;;;8.18;95.14
13604;BME280;24578;48.264;11.436;2023-02-17T06:24:31;96885.50;;;8.32;96.51
13604;BME280;24578;48.264;11.436;2023-02-17T06:27:31;96879.00;;;8.25;100.00
13604;BME280;24578;48.264;11.436;2023-02-17T06:30:32;96882.91;;;8.16;100.00
13604;BME280;24578;48.264;11.436;2023-02-17T06:33:33;96885.59;;;8.31;100.00
13604;BME280;24578;48.264;11.436;2023-02-17T06:36:34;96888.72;;;8.20;100.00
13604;BME280;24578;48.264;11.436;2023-02-17T06:39:34;96890.03;;;8.11;100.00
13604;BME280;24578;48.264;11.436;2023-02-17T06:42:35;96893.03;;;8.19;100.00
13604;BME280;24578;48.264;11.436;2023-02-17T06:45:35;96895.47;;;8.22;100.00
13604;BME280;24578;48.264;11.436;2023-02-17T06:48:36;96884.19;;;8.41;98.68
13604;BME280;24578;48.264;11.436;2023-02-17T06:51:36;96891.50;;;8.33;99.13
13604;BME280;24578;48.264;11.436;2023-02-17T06:54:37;96884.19;;;8.41;97.20
13604;BME280;24578;48.264;11.436;2023-02-17T06:57:37;96898.75;;;8.42;97.87
13604;BME280;24578;48.264;11.436;2023-02-17T07:00:38;96895.38;;;8.58;95.98
13604;BME280;24578;48.264;11.436;2023-02-17T07:03:38;96887.97;;;8.67;95.13
13604;BME280;24578;48.264;11.436;2023-02-17T07:06:39;96886.06;;;8.71;95.63
13604;BME280;24578;48.264;11.436;2023-02-17T07:09:40;96884.00;;;8.62;97.44
13604;BME280;24578;48.264;11.436;2023-02-17T07:12:40;96890.63;;;8.98;94.72
13604;BME280;24578;48.264;11.436;2023-02-17T07:15:42;96896.53;;;9.00;95.64
13604;BME280;24578;48.264;11.436;2023-02-17T07:18:43;96892.53;;;8.94;95.66
13604;BME280;24578;48.264;11.436;2023-02-17T07:21:44;96901.69;;;9.16;92.97
13604;BME280;24578;48.264;11.436;2023-02-17T07:24:45;96900.03;;;9.45;90.05
13604;BME280;24578;48.264;11.436;2023-02-17T07:27:46;96892.16;;;9.33;91.23
13604;BME280;24578;48.264;11.436;2023-02-17T07:30:47;96899.97;;;9.47;89.50
13604;BME280;24578;48.264;11.436;2023-02-17T07:33:47;96900.81;;;9.62;87.32
13604;BME280;24578;48.264;11.436;2023-02-17T07:36:49;96900.75;;;9.64;86.91
13604;BME280;24578;48.264;11.436;2023-02-17T07:39:49;96897.69;;;9.57;87.58
13604;BME280;24578;48.264;11.436;2023-02-17T07:42:51;96891.28;;;9.48;88.46
13604;BME280;24578;48.264;11.436;2023-02-17T07:45:55;96903.09;;;9.52;86.42
13604;BME280;24578;48.264;11.436;2023-02-17T07:48:56;96906.63;;;9.66;83.76
13604;BME280;24578;48.264;11.436;2023-02-17T07:51:57;96904.63;;;9.71;84.66
13604;BME280;24578;48.264;11.436;2023-02-17T07:54:57;96905.34;;;9.58;86.48
13604;BME280;24578;48.264;11.436;2023-02-17T07:57:58;96910.34;;;9.62;86.69
13604;BME280;24578;48.264;11.436;2023-02-17T08:01:25;96905.94;;;9.48;86.82
13604;BME280;24578;48.264;11.436;2023-02-17T08:04:26;96909.63;;;9.43;87.95
13604;BME280;24578;48.264;11.436;2023-02-17T08:07:26;96904.31;;;9.61;86.42
13604;BME280;24578;48.264;11.436;2023-02-17T08:10:27;96910.72;;;9.84;84.84
13604;BME280;24578;48.264;11.436;2023-02-17T08:13:45;96920.19;;;10.00;84.59
13604;BME280;24578;48.264;11.436;2023-02-17T08:16:46;96915.84;;;10.00;91.41
13604;BME280;24578;48.264;11.436;2023-02-17T08:19:47;96919.50;;;9.82;91.35
13604;BME280;24578;48.264;11.436;2023-02-17T08:22:47;96923.63;;;9.70;92.98
13604;BME280;24578;48.264;11.436;2023-02-17T08:25:48;96911.78;;;9.66;94.42
13604;BME280;24578;48.264;11.436;2023-02-17T08:28:48;96913.88;;;9.75;93.52
13604;BME280;24578;48.264;11.436;2023-02-17T08:31:51;96912.03;;;9.77;92.40
13604;BME280;24578;48.264;11.436;2023-02-17T08:34:55;96913.34;;;9.99;91.95
13604;BME280;24578;48.264;11.436;2023-02-17T08:37:56;96910.28;;;10.06;90.73
13604;BME280;24578;48.264;11.436;2023-02-17T08:40:56;96924.84;;;9.79;92.07
13604;BME280;24578;48.264;11.436;2023-02-17T08:43:59;96936.13;;;9.78;90.51
13604;BME280;24578;48.264;11.436;2023-02-17T08:47:00;96933.50;;;9.94;87.48
13604;BME280;24578;48.264;11.436;2023-02-17T08:50:02;96950.56;;;9.96;86.87
13604;BME280;24578;48.264;11.436;2023-02-17T08:53:04;96957.50;;;9.65;94.85
13604;BME280;24578;48.264;11.436;2023-02-17T08:56:04;96950.41;;;9.38;100.00
13604;BME280;24578;48.264;11.436;2023-02-17T08:59:07;96944.59;;;9.19;100.00
13604;BME280;24578;48.264;11.436;2023-02-17T09:02:09;96956.28;;;8.94;100.00
13604;BME280;24578;48.264;11.436;2023-02-17T09:05:11;96952.44;;;8.85;100.00
13604;BME280;24578;48.264;11.436;2023-02-17T09:08:12;96946.84;;;9.09;100.00
13604;BME280;24578;48.264;11.436;2023-02-17T09:11:13;96948.84;;;9.20;100.00
13604;BME280;24578;48.264;11.436;2023-02-17T09:14:16;96932.09;;;9.57;100.00
13604;BME280;24578;48.264;11.436;2023-02-17T09:17:16;96953.44;;;9.92;100.00
13604;BME280;24578;48.264;11.436;2023-02-17T09:20:17;96935.53;;;10.32;100.00
13604;BME280;24578;48.264;11.436;2023-02-17T09:23:19;96943.53;;;10.58;100.00
13604;BME280;24578;48.264;11.436;2023-02-17T09:26:20;96940.38;;;10.67;100.00
13604;BME280;24578;48.264;11.436;2023-02-17T09:29:21;96935.50;;;10.48;100.00
13604;BME280;24578;48.264;11.436;2023-02-17T09:32:21;96941.13;;;10.40;100.00
13604;BME280;24578;48.264;11.436;2023-02-17T09:35:22;96945.19;;;10.73;98.74
13604;BME280;24578;48.264;11.436;2023-02-17T09:38:23;96933.19;;;11.00;96.89
13604;BME280;24578;48.264;11.436;2023-02-17T09:44:44;96940.50;;;11.88;87.93
13604;BME280;24578;48.264;11.436;2023-02-17T09:47:54;96944.59;;;12.31;81.28
13604;BME280;24578;48.264;11.436;2023-02-17T09:51:00;96944.75;;;12.79;74.13
13604;BME280;24578;48.264;11.436;2023-02-17T09:54:09;96948.75;;;12.59;75.48
13604;BME280;24578;48.264;11.436;2023-02-17T09:57:17;96940.06;;;13.09;72.31
13604;BME280;24578;48.264;11.436;2023-02-17T10:00:35;96928.59;;;14.77;60.14
13604;BME280;24578;48.264;11.436;2023-02-17T10:03:42;96922.13;;;15.15;57.10
13604;BME280;24578;48.264;11.436;2023-02-17T10:06:47;96919.34;;;14.61;58.43
13604;BME280;24578;48.264;11.436;2023-02-17T10:10:19;96933.78;;;13.73;62.11
13604;BME280;24578;48.264;11.436;2023-02-17T10:13:26;96935.34;;;13.76;62.13
13604;BME280;24578;48.264;11.436;2023-02-17T10:16:37;96923.09;;;14.12;60.07
13604;BME280;24578;48.264;11.436;2023-02-17T10:20:10;96926.97;;;13.83;61.39
13604;BME280;24578;48.264;11.436;2023-02-17T10:23:16;96921.81;;;13.59;61.85
13604;BME280;24578;48.264;11.436;2023-02-17T10:29:50;96925.09;;;13.85;58.27
13604;BME280;24578;48.264;11.436;2023-02-17T10:33:20;96911.66;;;14.37;55.73
13604;BME280;24578;48.264;11.436;2023-02-17T10:36:35;96919.47;;;14.71;53.31
13604;BME280;24578;48.264;11.436;2023-02-17T10:39:48;96902.06;;;16.64;46.94
13604;BME280;24578;48.264;11.436;2023-02-17T10:42:54;96893.25;;;17.55;43.96
13604;BME280;24578;48.264;11.436;2023-02-17T10:45:56;96905.78;;;17.22;43.87
13604;BME280;24578;48.264;11.436;2023-02-17T10:48:59;96898.75;;;17.81;42.94
13604;BME280;24578;48.264;11.436;2023-02-17T10:52:10;96906.09;;;18.91;40.66
13604;BME280;24578;48.264;11.436;2023-02-17T10:55:37;96895.28;;;19.76;38.44
13604;BME280;24578;48.264;11.436;2023-02-17T10:59:03;96903.84;;;19.06;38.85
13604;BME280;24578;48.264;11.436;2023-02-17T11:02:21;96895.75;;;19.72;37.78
13604;BME280;24578;48.264;11.436;2023-02-17T11:05:26;96889.41;;;18.92;38.69
13604;BME280;24578;48.264;11.436;2023-02-17T11:08:31;96887.78;;;18.25;40.90
13604;BME280;24578;48.264;11.436;2023-02-17T11:11:35;96897.66;;;17.74;41.81
13604;BME280;24578;48.264;11.436;2023-02-17T11:14:36;96899.28;;;17.07;44.63
13604;BME280;24578;48.264;11.436;2023-02-17T11:17:40;96898.56;;;16.13;47.84
13604;BME280;24578;48.264;11.436;2023-02-17T11:20:40;96891.22;;;15.43;50.47
13604;BME280;24578;48.264;11.436;2023-02-17T11:23:54;96876.13;;;15.68;49.58
13604;BME280;24578;48.264;11.436;2023-02-17T11:26:59;96885.78;;;15.35;48.97
13604;BME280;24578;48.264;11.436;2023-02-17T11:30:12;96871.28;;;15.42;49.67
13604;BME280;24578;48.264;11.436;2023-02-17T11:33:20;96881.44;;;14.80;53.11
13604;BME280;24578;48.264;11.436;2023-02-17T11:36:31;96876.91;;;14.94;54.24
13604;BME280;24578;48.264;11.436;2023-02-17T11:39:37;96855.63;;;14.66;54.72
13604;BME280;24578;48.264;11.436;2023-02-17T11:42:38;96858.97;;;14.11;57.89
13604;BME280;24578;48.264;11.436;2023-02-17T11:59:13;96838.16;;;14.22;59.22
13604;BME280;24578;48.264;11.436;2023-02-17T12:06:17;96838.72;;;14.37;55.02
13604;BME280;24578;48.264;11.436;2023-02-17T12:12:57;96834.38;;;13.92;58.11
13604;BME280;24578;48.264;11.436;2023-02-17T12:22:59;96827.38;;;13.81;59.76
13604;BME280;24578;48.264;11.436;2023-02-17T12:29:33;96836.25;;;14.36;60.21
13604;BME280;24578;48.264;11.436;2023-02-17T12:36:18;96840.59;;;14.58;57.91
13604;BME280;24578;48.264;11.436;2023-02-17T12:39:34;96826.75;;;14.46;59.25
13604;BME280;24578;48.264;11.436;2023-02-17T12:42:52;96833.16;;;14.53;58.66
13604;BME280;24578;48.264;11.436;2023-02-17T12:45:58;96827.97;;;14.08;62.02
13604;BME280;24578;48.264;11.436;2023-02-17T12:49:25;96837.56;;;14.07;63.07
13604;BME280;24578;48.264;11.436;2023-02-17T12:52:31;96834.22;;;14.05;62.14
13604;BME280;24578;48.264;11.436;2023-02-17T12:55:56;96824.41;;;14.31;59.31
13604;BME280;24578;48.264;11.436;2023-02-17T12:59:10;96818.03;;;14.13;60.69
13604;BME280;24578;48.264;11.436;2023-02-17T13:02:14;96817.31;;;13.88;62.45
13604;BME280;24578;48.264;11.436;2023-02-17T13:11:33;96826.06;;;14.10;61.78
13604;BME280;24578;48.264;11.436;2023-02-17T13:17:54;96821.66;;;12.93;71.73
13604;BME280;24578;48.264;11.436;2023-02-17T13:21:15;96826.47;;;12.87;72.56
13604;BME280;24578;48.264;11.436;2023-02-17T13:24:50;96837.53;;;12.77;73.20
13604;BME280;24578;48.264;11.436;2023-02-17T13:27:51;96831.59;;;12.75;75.10
13604;BME280;24578;48.264;11.436;2023-02-17T13:30:54;96831.91;;;12.84;73.97
13604;BME280;24578;48.264;11.436;2023-02-17T13:33:58;96828.50;;;12.70;74.04
13604;BME280;24578;48.264;11.436;2023-02-17T13:37:01;96817.94;;;12.85;74.13
13604;BME280;24578;48.264;11.436;2023-02-17T13:43:23;96825.97;;;12.57;76.94
13604;BME280;24578;48.264;11.436;2023-02-17T13:46:26;96832.78;;;12.34;78.06
13604;BME280;24578;48.264;11.436;2023-02-17T13:49:28;96831.56;;;12.64;76.13
13604;BME280;24578;48.264;11.436;2023-02-17T13:52:32;96824.31;;;12.56;76.80
13604;BME280;24578;48.264;11.436;2023-02-17T13:55:32;96831.56;;;12.64;77.86
13604;BME280;24578;48.264;11.436;2023-02-17T13:58:39;96838.41;;;12.65;79.29
13604;BME280;24578;48.264;11.436;2023-02-17T14:01:41;96829.53;;;12.43;82.30
13604;BME280;24578;48.264;11.436;2023-02-17T14:04:42;96834.78;;;12.55;80.11
13604;BME280;24578;48.264;11.436;2023-02-17T14:07:44;96831.50;;;12.53;79.98
13604;BME280;24578;48.264;11.436;2023-02-17T14:10:47;96840.59;;;12.58;78.81
13604;BME280;24578;48.264;11.436;2023-02-17T14:13:49;96844.91;;;12.46;79.73
13604;BME280;24578;48.264;11.436;2023-02-17T14:17:44;96838.59;;;12.25;80.93
13604;BME280;24578;48.264;11.436;2023-02-17T14:20:32;96847.31;;;12.24;82.14
13604;BME280;24578;48.264;11.436;2023-02-17T14:26:47;96848.88;;;12.26;84.77
13604;BME280;24578;48.264;11.436;2023-02-17T14:29:48;96846.38;;;12.25;85.11
13604;BME280;24578;48.264;11.436;2023-02-17T14:33:03;96839.91;;;12.43;84.75
13604;BME280;24578;48.264;11.436;2023-02-17T14:36:05;96851.16;;;12.31;83.41
13604;BME280;24578;48.264;11.436;2023-02-17T14:39:08;96851.91;;;12.07;86.15
13604;BME280;24578;48.264;11.436;2023-02-17T14:42:12;96855.88;;;12.13;86.87
13604;BME280;24578;48.264;11.436;2023-02-17T14:45:13;96854.00;;;12.02;87.57
13604;BME280;24578;48.264;11.436;2023-02-17T14:48:14;96846.59;;;11.96;86.32
13604;BME280;24578;48.264;11.436;2023-02-17T14:51:22;96858.22;;;11.90;88.35
13604;BME280;24578;48.264;11.436;2023-02-17T14:54:23;96864.88;;;12.07;87.42
13604;BME280;24578;48.264;11.436;2023-02-17T14:57:26;96862.81;;;11.99;87.74
13604;BME280;24578;48.264;11.436;2023-02-17T15:00:27;96866.41;;;11.97;89.58
13604;BME280;24578;48.264;11.436;2023-02-17T15:03:27;96855.31;;;11.95;89.19
13604;BME280;24578;48.264;11.436;2023-02-17T15:06:41;96856.53;;;11.76;89.38
13604;BME280;24578;48.264;11.436;2023-02-17T15:09:45;96850.13;;;11.69;91.28
13604;BME280;24578;48.264;11.436;2023-02-17T15:12:47;96845.47;;;11.74;90.40
13604;BME280;24578;48.264;11.436;2023-02-17T15:15:47;96852.09;;;11.78;89.75
13604;BME280;24578;48.264;11.436;2023-02-17T15:18:48;96842.03;;;11.73;89.50
13604;BME280;24578;48.264;11.436;2023-02-17T15:21:51;96834.78;;;11.79;89.32
13604;BME280;24578;48.264;11.436;2023-02-17T15:24:53;96833.00;;;11.92;88.54
13604;BME280;24578;48.264;11.436;2023-02-17T15:27:53;96831.47;;;12.15;85.85
13604;BME280;24578;48.264;11.436;2023-02-17T15:30:55;96823.16;;;12.10;86.54
13604;BME280;24578;48.264;11.436;2023-02-17T15:33:58;96830.94;;;11.97;87.13
13604;BME280;24578;48.264;11.436;2023-02-17T15:37:00;96832.69;;;11.97;87.15
13604;BME280;24578;48.264;11.436;2023-02-17T15:40:01;96825.66;;;11.99;87.05
13604;BME280;24578;48.264;11.436;2023-02-17T15:43:01;96817.31;;;11.94;87.29
13604;BME280;24578;48.264;11.436;2023-02-17T15:46:12;96811.94;;;11.84;87.90
13604;BME280;24578;48.264;11.436;2023-02-17T15:49:13;96819.63;;;11.85;87.14
13604;BME280;24578;48.264;11.436;2023-02-17T15:52:14;96818.38;;;11.91;86.71
13604;BME280;24578;48.264;11.436;2023-02-17T15:55:19;96823.25;;;11.70;88.85
13604;BME280;24578;48.264;11.436;2023-02-17T15:58:21;96829.78;;;11.76;89.19
13604;BME280;24578;48.264;11.436;2023-02-17T16:01:32;96830.63;;;11.63;89.04
13604;BME280;24578;48.264;11.436;2023-02-17T16:04:33;96822.84;;;11.63;89.72
13604;BME280;24578;48.264;11.436;2023-02-17T16:07:34;96819.00;;;11.56;90.84
13604;BME280;24578;48.264;11.436;2023-02-17T16:10:35;96825.03;;;11.56;92.16
13604;BME280;24578;48.264;11.436;2023-02-17T16:13:36;96831.41;;;11.38;94.55
13604;BME280;24578;48.264;11.436;2023-02-17T16:16:37;96824.59;;;11.50;93.35
13604;BME280;24578;48.264;11.436;2023-02-17T16:19:37;96822.28;;;11.32;95.22
13604;BME280;24578;48.264;11.436;2023-02-17T16:22:38;96816.69;;;11.25;96.57
13604;BME280;24578;48.264;11.436;2023-02-17T16:25:42;96815.00;;;11.11;98.90
13604;BME280;24578;48.264;11.436;2023-02-17T16:28:43;96818.94;;;11.04;100.00
13604;BME280;24578;48.264;11.436;2023-02-17T16:31:45;96827.28;;;10.95;100.00
13604;BME280;24578;48.264;11.436;2023-02-17T16:34:46;96828.88;;;10.83;100.00
13604;BME280;24578;48.264;11.436;2023-02-17T16:37:57;96829.66;;;10.71;100.00
13604;BME280;24578;48.264;11.436;2023-02-17T16:40:59;96829.03;;;10.67;100.00
13604;BME280;24578;48.264;11.436;2023-02-17T16:43:59;96829.16;;;10.65;100.00
13604;BME280;24578;48.264;11.436;2023-02-17T16:47:00;96830.00;;;10.51;100.00
13604;BME280;24578;48.264;11.436;2023-02-17T16:50:06;96831.28;;;10.59;100.00
13604;BME280;24578;48.264;11.436;2023-02-17T16:53:11;96830.28;;;10.47;100.00
13604;BME280;24578;48.264;11.436;2023-02-17T16:56:33;96836.00;;;10.52;100.00
13604;BME280;24578;48.264;11.436;2023-02-17T16:59:34;96846.63;;;10.33;100.00
13604;BME280;24578;48.264;11.436;2023-02-17T17:02:35;96835.34;;;10.34;100.00
13604;BME280;24578;48.264;11.436;2023-02-17T17:05:35;96847.22;;;10.24;100.00
13604;BME280;24578;48.264;11.436;2023-02-17T17:08:36;96846.66;;;10.18;100.00
13604;BME280;24578;48.264;11.436;2023-02-17T17:11:37;96850.63;;;10.24;100.00
13604;BME280;24578;48.264;11.436;2023-02-17T17:14:37;96863.19;;;10.16;100.00
13604;BME280;24578;48.264;11.436;2023-02-17T17:17:58;96861.44;;;10.02;100.00
13604;BME280;24578;48.264;11.436;2023-02-17T17:20:59;96859.78;;;10.01;100.00
13604;BME280;24578;48.264;11.436;2023-02-17T17:23:59;96869.00;;;10.05;100.00